^^
Station Historical Data
 
Daily Summary for August 29, 2014 Units:  Metric    English   Both
« Previous Day
Next Day »
Daily Weekly Monthly Yearly Custom
  Current: High: Low: Average:
Temperature: 20.2 °C 20.4 °C 13.4 °C 15.7 °C
Dew Point: 17.6 °C 18.3 °C 12.3 °C 14.6 °C
Humidity: 85% 96% 85% 93%
Wind Speed: 0.0km/h 2.6km/h 0.0km/h 0.1km/h
Wind Gust: 1.6km/h 8.0km/h - -
WindCalm - - SE
Pressure: 1016.8 hPa 1017.5 hPa 1016.5 hPa -
Precipitation: 0.5 mm      
Historical Graphs
 
 
Tabular Data for August 29, 2014
Time Temperature Dew Point Pressure Wind Wind Speed Wind Gust Humidity Rainfall Rate (Hourly) solar Conditions
00:00 15.8 °C 14.0 °C 1017.5 hPa Calm     89% 0.0 mm 0 W/m2
00:05 15.8 °C 14.0 °C 1017.2 hPa Calm     89% 0.0 mm 0 W/m2
00:15 15.7 °C 13.9 °C 1017.2 hPa Calm     89% 0.0 mm 0 W/m2
00:20 15.7 °C 13.9 °C 1017.2 hPa Calm     89% 0.0 mm 0 W/m2
00:25 15.7 °C 13.9 °C 1017.2 hPa Calm     89% 0.0 mm 0 W/m2
00:35 15.6 °C 13.8 °C 1017.2 hPa Calm     89% 0.0 mm 0 W/m2
00:45 15.5 °C 13.7 °C 1017.2 hPa Calm     89% 0.0 mm 0 W/m2
00:55 15.4 °C 13.8 °C 1017.2 hPa Calm     90% 0.0 mm 0 W/m2
01:05 15.3 °C 13.7 °C 1016.8 hPa Calm     90% 0.0 mm 0 W/m2
01:15 15.2 °C 13.6 °C 1017.2 hPa Calm     90% 0.0 mm 0 W/m2
01:20 15.2 °C 13.7 °C 1017.2 hPa Calm     91% 0.0 mm 0 W/m2
01:35 15.1 °C 13.4 °C 1017.2 hPa Calm     90% 0.0 mm 0 W/m2
01:45 15.0 °C 13.4 °C 1017.2 hPa Calm     90% 0.0 mm 0 W/m2
01:55 14.9 °C 13.4 °C 1017.2 hPa Calm     91% 0.0 mm 0 W/m2
02:00 14.9 °C 13.4 °C 1017.2 hPa Calm     91% 0.0 mm 0 W/m2
02:10 14.8 °C 13.3 °C 1017.2 hPa Calm     91% 0.0 mm 0 W/m2
02:20 14.8 °C 13.3 °C 1016.8 hPa Calm     91% 0.0 mm 0 W/m2
02:30 14.8 °C 13.3 °C 1016.8 hPa Calm     91% 0.0 mm 0 W/m2
02:35 14.8 °C 13.3 °C 1016.8 hPa Calm     91% 0.0 mm 0 W/m2
02:40 14.7 °C 13.4 °C 1016.8 hPa Calm     92% 0.0 mm 0 W/m2
02:50 14.7 °C 13.4 °C 1016.8 hPa Calm     92% 0.0 mm 0 W/m2
03:00 14.7 °C 13.4 °C 1016.8 hPa Calm     92% 0.0 mm 0 W/m2
03:10 14.7 °C 13.4 °C 1016.8 hPa Calm     92% 0.0 mm 0 W/m2
03:20 14.7 °C 13.4 °C 1016.8 hPa Calm     92% 0.0 mm 0 W/m2
03:25 14.6 °C 13.3 °C 1016.8 hPa Calm     92% 0.0 mm 0 W/m2
03:35 14.4 °C 13.1 °C 1016.8 hPa Calm     92% 0.0 mm 0 W/m2
03:45 14.3 °C 13.0 °C 1016.8 hPa Calm     92% 0.0 mm 0 W/m2
03:50 14.2 °C 12.9 °C 1016.8 hPa Calm     92% 0.0 mm 0 W/m2
04:00 14.1 °C 12.8 °C 1016.8 hPa Calm     92% 0.0 mm 0 W/m2
04:10 13.9 °C 12.6 °C 1016.8 hPa Calm     92% 0.0 mm 0 W/m2
04:15 13.9 °C 12.6 °C 1016.8 hPa Calm     92% 0.0 mm 0 W/m2
04:25 13.8 °C 12.5 °C 1016.5 hPa Calm     92% 0.0 mm 0 W/m2
04:30 13.7 °C 12.4 °C 1016.8 hPa Calm     92% 0.0 mm 0 W/m2
04:40 13.7 °C 12.4 °C 1016.8 hPa Calm     92% 0.0 mm 0 W/m2
04:50 13.6 °C 12.5 °C 1016.5 hPa Calm     93% 0.0 mm 0 W/m2
04:55 13.6 °C 12.5 °C 1016.5 hPa Calm     93% 0.0 mm 0 W/m2
05:00 13.5 °C 12.4 °C 1016.5 hPa Calm     93% 0.0 mm 0 W/m2
05:05 13.4 °C 12.3 °C 1016.5 hPa Calm     93% 0.0 mm 0 W/m2
05:10 13.4 °C 12.3 °C 1016.5 hPa Calm     93% 0.0 mm 0 W/m2
05:15 13.4 °C 12.3 °C 1016.5 hPa Calm     93% 0.0 mm 0 W/m2
05:20 13.4 °C 12.3 °C 1016.5 hPa Calm     93% 0.0 mm 0 W/m2
05:30 13.4 °C 12.3 °C 1016.5 hPa Calm     93% 0.0 mm 0 W/m2
05:35 13.4 °C 12.3 °C 1016.5 hPa Calm     93% 0.0 mm 0 W/m2
05:45 13.4 °C 12.3 °C 1016.5 hPa Calm     93% 0.0 mm 0 W/m2
05:50 13.4 °C 12.3 °C 1016.5 hPa Calm     93% 0.0 mm 0 W/m2
06:00 13.4 °C 12.4 °C 1016.5 hPa Calm     94% 0.0 mm 0 W/m2
06:05 13.5 °C 12.6 °C 1016.5 hPa Calm     94% 0.0 mm 0 W/m2
06:10 13.6 °C 12.7 °C 1016.5 hPa Calm     94% 0.0 mm 0 W/m2
06:15 13.6 °C 12.7 °C 1016.5 hPa Calm     94% 0.0 mm 0 W/m2
06:20 13.7 °C 12.8 °C 1016.5 hPa Calm     94% 0.0 mm 0 W/m2
06:25 13.8 °C 12.8 °C 1016.5 hPa Calm     94% 0.0 mm 0 W/m2
06:35 13.9 °C 13.1 °C 1016.5 hPa Calm     95% 0.0 mm 0 W/m2
06:40 14.1 °C 13.3 °C 1016.8 hPa Calm     95% 0.0 mm 5 W/m2
06:45 14.2 °C 13.4 °C 1016.8 hPa Calm     95% 0.0 mm 7 W/m2
06:55 14.3 °C 13.5 °C 1016.8 hPa Calm     95% 0.0 mm 9 W/m2
07:00 14.3 °C 13.5 °C 1016.8 hPa Calm     95% 0.0 mm 9 W/m2
07:10 14.4 °C 13.6 °C 1016.8 hPa Calm     95% 0.0 mm 12 W/m2
07:15 14.4 °C 13.6 °C 1016.8 hPa Calm     95% 0.0 mm 19 W/m2
07:20 14.4 °C 13.6 °C 1016.5 hPa Calm     95% 0.0 mm 25 W/m2
07:25 14.5 °C 13.7 °C 1016.5 hPa Calm     95% 0.0 mm 33 W/m2
07:35 14.6 °C 13.8 °C 1016.5 hPa Calm     95% 0.0 mm 35 W/m2
07:45 14.7 °C 13.9 °C 1016.8 hPa Calm     95% 0.0 mm 53 W/m2
07:50 14.8 °C 14.0 °C 1016.8 hPa Calm     95% 0.0 mm 42 W/m2
07:55 14.8 °C 14.0 °C 1016.8 hPa Calm     95% 0.0 mm 63 W/m2
08:00 14.9 °C 14.3 °C 1016.5 hPa Calm     96% 0.0 mm 72 W/m2
08:05 15.1 °C 14.4 °C 1016.5 hPa Calm     96% 0.0 mm 67 W/m2
08:10 15.2 °C 14.6 °C 1016.5 hPa Calm     96% 0.0 mm 70 W/m2
08:20 15.3 °C 14.7 °C 1016.5 hPa Calm     96% 0.0 mm 77 W/m2
08:25 15.3 °C 14.7 °C 1016.8 hPa Calm     96% 0.0 mm 69 W/m2
08:30 15.4 °C 14.8 °C 1016.8 hPa Calm     96% 0.0 mm 69 W/m2
08:35 15.5 °C 14.9 °C 1016.8 hPa Calm     96% 0.0 mm 70 W/m2
08:40 15.6 °C 14.9 °C 1016.8 hPa Calm     96% 0.0 mm 60 W/m2
08:45 15.6 °C 14.9 °C 1016.8 hPa Calm     96% 0.0 mm 100 W/m2
08:50 15.7 °C 15.1 °C 1017.2 hPa Calm     96% 0.0 mm 113 W/m2
08:55 15.7 °C 15.1 °C 1017.2 hPa Calm     96% 0.0 mm 77 W/m2
09:00 15.8 °C 15.2 °C 1017.2 hPa Calm     96% 0.0 mm 58 W/m2
09:05 15.8 °C 15.2 °C 1017.2 hPa Calm     96% 0.0 mm 53 W/m2
09:10 15.9 °C 15.3 °C 1017.2 hPa Calm     96% 0.0 mm 54 W/m2
09:15 15.9 °C 15.3 °C 1017.2 hPa NNW 2.1 km/h 8.0 km/h 96% 0.0 mm 67 W/m2
09:20 15.9 °C 15.3 °C 1017.2 hPa NW 2.6 km/h 8.0 km/h 96% 0.3 mm 69 W/m2
09:25 15.9 °C 15.3 °C 1017.2 hPa Calm     96% 0.5 mm 88 W/m2
09:30 15.9 °C 15.3 °C 1017.2 hPa Calm     96% 0.5 mm 113 W/m2
09:35 15.9 °C 15.3 °C 1017.2 hPa Calm     96% 0.5 mm 121 W/m2
09:40 16.0 °C 15.4 °C 1017.2 hPa Calm     96% 0.5 mm 113 W/m2
09:50 16.1 °C 15.4 °C 1017.2 hPa Calm     96% 0.5 mm 120 W/m2
09:55 16.2 °C 15.6 °C 1017.2 hPa Calm     96% 0.5 mm 144 W/m2
10:05 16.3 °C 15.7 °C 1017.2 hPa Calm     96% 0.5 mm 118 W/m2
10:10 16.4 °C 15.8 °C 1017.2 hPa Calm     96% 0.5 mm 98 W/m2
10:15 16.4 °C 15.8 °C 1017.2 hPa Calm     96% 0.5 mm 90 W/m2
10:20 16.5 °C 15.8 °C 1017.2 hPa Calm     96% 0.3 mm 91 W/m2
10:25 16.5 °C 15.8 °C 1017.2 hPa Calm     96% 0.3 mm 91 W/m2
10:35 16.6 °C 15.9 °C 1017.5 hPa Calm   1.6 km/h 96% 0.0 mm 146 W/m2
10:45 16.6 °C 15.9 °C 1017.5 hPa Calm     96% 0.0 mm 144 W/m2
10:50 16.6 °C 15.9 °C 1017.5 hPa Calm     96% 0.0 mm 104 W/m2
10:55 16.7 °C 16.1 °C 1017.5 hPa Calm     96% 0.0 mm 95 W/m2
11:05 16.7 °C 16.1 °C 1017.5 hPa Calm     96% 0.3 mm 95 W/m2
11:10 16.8 °C 16.2 °C 1017.5 hPa Calm     96% 0.3 mm 100 W/m2
11:15 16.8 °C 16.2 °C 1017.5 hPa Calm     96% 0.3 mm 135 W/m2
11:20 16.9 °C 16.3 °C 1017.5 hPa Calm     96% 0.3 mm 148 W/m2
11:30 16.9 °C 16.3 °C 1017.5 hPa Calm     96% 0.3 mm 199 W/m2
11:35 16.9 °C 16.3 °C 1017.5 hPa Calm     96% 0.3 mm 225 W/m2
11:40 17.1 °C 16.4 °C 1017.5 hPa Calm     96% 0.3 mm 227 W/m2
11:50 17.3 °C 16.7 °C 1017.2 hPa Calm     96% 0.3 mm 251 W/m2
11:55 17.4 °C 16.8 °C 1017.2 hPa Calm     96% 0.3 mm 295 W/m2
12:00 17.6 °C 16.9 °C 1017.2 hPa NNE 0.2 km/h 3.2 km/h 96% 0.3 mm 376 W/m2
12:05 17.8 °C 17.2 °C 1017.2 hPa Calm     96% 0.0 mm 338 W/m2
12:10 17.9 °C 17.3 °C 1016.8 hPa Calm   1.6 km/h 96% 0.0 mm 355 W/m2
12:15 18.2 °C 17.6 °C 1017.2 hPa ENE 0.2 km/h 3.2 km/h 96% 0.0 mm 295 W/m2
12:20 18.3 °C 17.7 °C 1017.2 hPa Calm     96% 0.0 mm 410 W/m2
12:30 18.7 °C 17.9 °C 1017.2 hPa Calm     95% 0.0 mm 399 W/m2
12:35 18.8 °C 18.0 °C 1017.2 hPa Calm     95% 0.0 mm 320 W/m2
12:45 19.6 °C 18.3 °C 1017.2 hPa ENE 0.2 km/h 3.2 km/h 92% 0.0 mm 376 W/m2
12:55 19.6 °C 17.7 °C 1017.2 hPa Calm     89% 0.0 mm 462 W/m2
13:00 19.8 °C 17.9 °C 1017.2 hPa Calm     89% 0.0 mm 705 W/m2
13:05 20.1 °C 18.1 °C 1017.2 hPa Calm     88% 0.0 mm 879 W/m2
13:15 19.9 °C 17.8 °C 1017.2 hPa Calm     88% 0.0 mm 394 W/m2
13:20 20.2 °C 17.9 °C 1016.8 hPa East 0.3 km/h 4.8 km/h 87% 0.0 mm 381 W/m2
13:25 20.2 °C 17.9 °C 1016.8 hPa Calm     87% 0.0 mm 390 W/m2
13:30 20.3 °C 17.9 °C 1016.8 hPa Calm   1.6 km/h 86% 0.0 mm 441 W/m2
13:35 20.2 °C 17.9 °C 1016.8 hPa East 0.2 km/h 4.8 km/h 87% 0.0 mm 434 W/m2
13:40 20.4 °C 18.0 °C 1016.8 hPa Calm     86% 0.0 mm 584 W/m2
13:45 20.4 °C 17.8 °C 1016.8 hPa ESE 1.1 km/h 8.0 km/h 85% 0.0 mm 446 W/m2
13:55 20.2 °C 17.6 °C 1016.8 hPa Calm   1.6 km/h 85% 0.0 mm 531 W/m2
Tägerwilen, Thurgau, Switzerland
Compliments of Weather Underground